sensor_id;sensor_type;location;lat;lon;timestamp;P1;durP1;ratioP1;P2;durP2;ratioP2
53261;SDS011;39658;51.090;-1.786;2024-01-11T00:01:59;5.35;;;1.95;;
53261;SDS011;39658;51.090;-1.786;2024-01-11T00:04:27;9.35;;;3.05;;
53261;SDS011;39658;51.090;-1.786;2024-01-11T00:06:54;9.85;;;2.35;;
53261;SDS011;39658;51.090;-1.786;2024-01-11T00:09:21;6.97;;;3.42;;
53261;SDS011;39658;51.090;-1.786;2024-01-11T00:11:48;13.35;;;3.22;;
53261;SDS011;39658;51.090;-1.786;2024-01-11T00:14:15;10.40;;;4.03;;
53261;SDS011;39658;51.090;-1.786;2024-01-11T00:16:42;17.13;;;3.47;;
53261;SDS011;39658;51.090;-1.786;2024-01-11T00:19:08;10.27;;;2.83;;
53261;SDS011;39658;51.090;-1.786;2024-01-11T00:21:37;12.75;;;3.03;;
53261;SDS011;39658;51.090;-1.786;2024-01-11T00:24:03;8.10;;;2.67;;
53261;SDS011;39658;51.090;-1.786;2024-01-11T00:26:29;9.63;;;3.28;;
53261;SDS011;39658;51.090;-1.786;2024-01-11T00:28:56;9.77;;;3.35;;
53261;SDS011;39658;51.090;-1.786;2024-01-11T00:31:23;11.88;;;3.70;;
53261;SDS011;39658;51.090;-1.786;2024-01-11T00:33:49;13.98;;;3.58;;
53261;SDS011;39658;51.090;-1.786;2024-01-11T00:36:19;10.57;;;3.47;;
53261;SDS011;39658;51.090;-1.786;2024-01-11T00:38:47;11.60;;;2.95;;
53261;SDS011;39658;51.090;-1.786;2024-01-11T00:41:14;13.63;;;3.63;;
53261;SDS011;39658;51.090;-1.786;2024-01-11T00:43:41;9.25;;;2.30;;
53261;SDS011;39658;51.090;-1.786;2024-01-11T00:46:07;14.18;;;3.63;;
53261;SDS011;39658;51.090;-1.786;2024-01-11T00:48:34;8.98;;;3.53;;
53261;SDS011;39658;51.090;-1.786;2024-01-11T00:51:01;10.73;;;3.40;;
53261;SDS011;39658;51.090;-1.786;2024-01-11T00:53:29;10.35;;;2.97;;
53261;SDS011;39658;51.090;-1.786;2024-01-11T00:55:57;8.75;;;3.72;;
53261;SDS011;39658;51.090;-1.786;2024-01-11T00:58:24;10.65;;;2.85;;
53261;SDS011;39658;51.090;-1.786;2024-01-11T01:00:51;10.60;;;3.10;;
53261;SDS011;39658;51.090;-1.786;2024-01-11T01:03:18;12.15;;;3.30;;
53261;SDS011;39658;51.090;-1.786;2024-01-11T01:05:45;9.02;;;2.33;;
53261;SDS011;39658;51.090;-1.786;2024-01-11T01:08:12;8.18;;;2.90;;
53261;SDS011;39658;51.090;-1.786;2024-01-11T01:10:39;9.20;;;3.13;;
53261;SDS011;39658;51.090;-1.786;2024-01-11T01:13:07;13.75;;;4.10;;
53261;SDS011;39658;51.090;-1.786;2024-01-11T01:15:33;16.80;;;3.70;;
53261;SDS011;39658;51.090;-1.786;2024-01-11T01:18:00;14.55;;;3.22;;
53261;SDS011;39658;51.090;-1.786;2024-01-11T01:20:27;13.60;;;3.88;;
53261;SDS011;39658;51.090;-1.786;2024-01-11T01:22:54;8.82;;;3.88;;
53261;SDS011;39658;51.090;-1.786;2024-01-11T01:25:21;11.43;;;3.65;;
53261;SDS011;39658;51.090;-1.786;2024-01-11T01:27:48;17.75;;;3.55;;
53261;SDS011;39658;51.090;-1.786;2024-01-11T01:30:16;14.50;;;3.60;;
53261;SDS011;39658;51.090;-1.786;2024-01-11T01:32:42;15.07;;;4.60;;
53261;SDS011;39658;51.090;-1.786;2024-01-11T01:35:09;10.60;;;3.53;;
53261;SDS011;39658;51.090;-1.786;2024-01-11T01:37:36;11.88;;;3.85;;
53261;SDS011;39658;51.090;-1.786;2024-01-11T01:40:03;14.55;;;3.80;;
53261;SDS011;39658;51.090;-1.786;2024-01-11T01:42:30;14.32;;;4.57;;
53261;SDS011;39658;51.090;-1.786;2024-01-11T01:44:57;9.77;;;3.03;;
53261;SDS011;39658;51.090;-1.786;2024-01-11T01:47:25;18.02;;;3.97;;
53261;SDS011;39658;51.090;-1.786;2024-01-11T01:49:53;15.73;;;3.60;;
53261;SDS011;39658;51.090;-1.786;2024-01-11T01:52:22;10.05;;;3.42;;
53261;SDS011;39658;51.090;-1.786;2024-01-11T01:54:50;13.00;;;3.85;;
53261;SDS011;39658;51.090;-1.786;2024-01-11T01:57:17;10.48;;;3.50;;
53261;SDS011;39658;51.090;-1.786;2024-01-11T01:59:45;9.75;;;4.53;;
53261;SDS011;39658;51.090;-1.786;2024-01-11T02:02:15;14.77;;;4.43;;
53261;SDS011;39658;51.090;-1.786;2024-01-11T02:04:44;11.20;;;3.17;;
53261;SDS011;39658;51.090;-1.786;2024-01-11T02:07:10;16.98;;;4.75;;
53261;SDS011;39658;51.090;-1.786;2024-01-11T02:09:37;12.60;;;3.97;;
53261;SDS011;39658;51.090;-1.786;2024-01-11T02:12:06;18.65;;;4.68;;
53261;SDS011;39658;51.090;-1.786;2024-01-11T02:14:36;10.15;;;3.70;;
53261;SDS011;39658;51.090;-1.786;2024-01-11T02:17:03;12.57;;;5.05;;
53261;SDS011;39658;51.090;-1.786;2024-01-11T02:19:30;14.93;;;4.07;;
53261;SDS011;39658;51.090;-1.786;2024-01-11T02:22:00;11.32;;;4.32;;
53261;SDS011;39658;51.090;-1.786;2024-01-11T02:24:35;13.15;;;4.10;;
53261;SDS011;39658;51.090;-1.786;2024-01-11T02:27:02;12.93;;;4.80;;
53261;SDS011;39658;51.090;-1.786;2024-01-11T02:29:31;15.27;;;4.85;;
53261;SDS011;39658;51.090;-1.786;2024-01-11T02:31:58;18.65;;;4.43;;
53261;SDS011;39658;51.090;-1.786;2024-01-11T02:34:26;19.48;;;4.82;;
53261;SDS011;39658;51.090;-1.786;2024-01-11T02:36:53;15.35;;;5.32;;
53261;SDS011;39658;51.090;-1.786;2024-01-11T02:39:21;21.27;;;5.50;;
53261;SDS011;39658;51.090;-1.786;2024-01-11T02:41:51;19.75;;;5.25;;
53261;SDS011;39658;51.090;-1.786;2024-01-11T02:44:23;15.48;;;4.38;;
53261;SDS011;39658;51.090;-1.786;2024-01-11T02:46:50;14.00;;;5.57;;
53261;SDS011;39658;51.090;-1.786;2024-01-11T02:49:17;15.63;;;4.32;;
53261;SDS011;39658;51.090;-1.786;2024-01-11T02:51:43;22.85;;;6.00;;
53261;SDS011;39658;51.090;-1.786;2024-01-11T02:54:10;17.45;;;4.85;;
53261;SDS011;39658;51.090;-1.786;2024-01-11T02:56:37;12.32;;;5.70;;
53261;SDS011;39658;51.090;-1.786;2024-01-11T02:59:05;18.50;;;6.35;;
53261;SDS011;39658;51.090;-1.786;2024-01-11T03:01:32;19.92;;;6.03;;
53261;SDS011;39658;51.090;-1.786;2024-01-11T03:03:59;14.32;;;4.82;;
53261;SDS011;39658;51.090;-1.786;2024-01-11T03:06:26;16.83;;;5.28;;
53261;SDS011;39658;51.090;-1.786;2024-01-11T03:08:52;18.52;;;4.63;;
53261;SDS011;39658;51.090;-1.786;2024-01-11T03:11:19;12.65;;;4.55;;
53261;SDS011;39658;51.090;-1.786;2024-01-11T03:13:46;19.70;;;6.85;;
53261;SDS011;39658;51.090;-1.786;2024-01-11T03:16:14;16.58;;;6.28;;
53261;SDS011;39658;51.090;-1.786;2024-01-11T03:18:40;19.25;;;5.57;;
53261;SDS011;39658;51.090;-1.786;2024-01-11T03:21:07;15.95;;;6.00;;
53261;SDS011;39658;51.090;-1.786;2024-01-11T03:23:34;16.75;;;4.93;;
53261;SDS011;39658;51.090;-1.786;2024-01-11T03:26:01;18.00;;;5.40;;
53261;SDS011;39658;51.090;-1.786;2024-01-11T03:28:27;19.88;;;5.25;;
53261;SDS011;39658;51.090;-1.786;2024-01-11T03:30:54;14.15;;;5.28;;
53261;SDS011;39658;51.090;-1.786;2024-01-11T03:33:22;13.80;;;5.97;;
53261;SDS011;39658;51.090;-1.786;2024-01-11T03:35:49;13.65;;;4.57;;
53261;SDS011;39658;51.090;-1.786;2024-01-11T03:38:15;17.85;;;5.18;;
53261;SDS011;39658;51.090;-1.786;2024-01-11T03:40:42;13.90;;;5.03;;
53261;SDS011;39658;51.090;-1.786;2024-01-11T03:43:09;17.08;;;5.75;;
53261;SDS011;39658;51.090;-1.786;2024-01-11T03:45:36;23.60;;;5.13;;
53261;SDS011;39658;51.090;-1.786;2024-01-11T03:48:03;15.25;;;4.32;;
53261;SDS011;39658;51.090;-1.786;2024-01-11T03:50:31;19.15;;;5.10;;
53261;SDS011;39658;51.090;-1.786;2024-01-11T03:52:58;20.10;;;5.00;;
53261;SDS011;39658;51.090;-1.786;2024-01-11T03:55:24;19.75;;;4.70;;
53261;SDS011;39658;51.090;-1.786;2024-01-11T03:57:51;18.38;;;5.22;;
53261;SDS011;39658;51.090;-1.786;2024-01-11T04:00:18;19.10;;;5.55;;
53261;SDS011;39658;51.090;-1.786;2024-01-11T04:02:45;21.17;;;4.78;;
53261;SDS011;39658;51.090;-1.786;2024-01-11T04:05:12;18.40;;;5.07;;
53261;SDS011;39658;51.090;-1.786;2024-01-11T04:07:40;15.10;;;5.20;;
53261;SDS011;39658;51.090;-1.786;2024-01-11T04:10:07;18.88;;;5.72;;
53261;SDS011;39658;51.090;-1.786;2024-01-11T04:12:35;18.17;;;4.90;;
53261;SDS011;39658;51.090;-1.786;2024-01-11T04:15:02;15.55;;;4.93;;
53261;SDS011;39658;51.090;-1.786;2024-01-11T04:17:29;14.55;;;4.22;;
53261;SDS011;39658;51.090;-1.786;2024-01-11T04:19:56;19.63;;;4.85;;
53261;SDS011;39658;51.090;-1.786;2024-01-11T04:22:22;14.15;;;4.53;;
53261;SDS011;39658;51.090;-1.786;2024-01-11T04:24:51;14.15;;;4.93;;
53261;SDS011;39658;51.090;-1.786;2024-01-11T04:27:17;10.88;;;4.50;;
53261;SDS011;39658;51.090;-1.786;2024-01-11T04:29:44;18.27;;;6.20;;
53261;SDS011;39658;51.090;-1.786;2024-01-11T04:32:11;17.83;;;5.18;;
53261;SDS011;39658;51.090;-1.786;2024-01-11T04:34:37;16.42;;;5.43;;
53261;SDS011;39658;51.090;-1.786;2024-01-11T04:37:04;19.02;;;4.88;;
53261;SDS011;39658;51.090;-1.786;2024-01-11T04:39:31;12.95;;;4.53;;
53261;SDS011;39658;51.090;-1.786;2024-01-11T04:42:00;20.02;;;5.22;;
53261;SDS011;39658;51.090;-1.786;2024-01-11T04:44:27;15.55;;;4.40;;
53261;SDS011;39658;51.090;-1.786;2024-01-11T04:46:53;22.50;;;5.28;;
53261;SDS011;39658;51.090;-1.786;2024-01-11T04:49:20;13.85;;;4.78;;
53261;SDS011;39658;51.090;-1.786;2024-01-11T04:51:47;26.83;;;5.35;;
53261;SDS011;39658;51.090;-1.786;2024-01-11T04:54:14;15.77;;;5.93;;
53261;SDS011;39658;51.090;-1.786;2024-01-11T04:56:40;13.32;;;6.00;;
53261;SDS011;39658;51.090;-1.786;2024-01-11T04:59:08;16.77;;;5.22;;
53261;SDS011;39658;51.090;-1.786;2024-01-11T05:01:35;10.00;;;4.63;;
53261;SDS011;39658;51.090;-1.786;2024-01-11T05:04:02;14.77;;;5.05;;
53261;SDS011;39658;51.090;-1.786;2024-01-11T05:06:28;14.50;;;5.15;;
53261;SDS011;39658;51.090;-1.786;2024-01-11T05:08:55;17.52;;;5.90;;
53261;SDS011;39658;51.090;-1.786;2024-01-11T05:11:23;15.90;;;5.00;;
53261;SDS011;39658;51.090;-1.786;2024-01-11T05:13:50;17.80;;;6.25;;
53261;SDS011;39658;51.090;-1.786;2024-01-11T05:16:20;16.88;;;6.85;;
53261;SDS011;39658;51.090;-1.786;2024-01-11T05:18:47;18.73;;;5.50;;
53261;SDS011;39658;51.090;-1.786;2024-01-11T05:21:14;15.52;;;5.20;;
53261;SDS011;39658;51.090;-1.786;2024-01-11T05:23:41;17.67;;;5.90;;
53261;SDS011;39658;51.090;-1.786;2024-01-11T05:26:08;17.90;;;6.13;;
53261;SDS011;39658;51.090;-1.786;2024-01-11T05:28:35;23.55;;;7.07;;
53261;SDS011;39658;51.090;-1.786;2024-01-11T05:31:05;17.08;;;6.50;;
53261;SDS011;39658;51.090;-1.786;2024-01-11T05:33:34;25.45;;;7.63;;
53261;SDS011;39658;51.090;-1.786;2024-01-11T05:36:00;16.55;;;6.88;;
53261;SDS011;39658;51.090;-1.786;2024-01-11T05:38:27;23.27;;;7.25;;
53261;SDS011;39658;51.090;-1.786;2024-01-11T05:40:54;24.40;;;8.00;;
53261;SDS011;39658;51.090;-1.786;2024-01-11T05:43:21;27.90;;;9.05;;
53261;SDS011;39658;51.090;-1.786;2024-01-11T05:45:48;30.30;;;9.27;;
53261;SDS011;39658;51.090;-1.786;2024-01-11T05:48:15;24.02;;;6.80;;
53261;SDS011;39658;51.090;-1.786;2024-01-11T05:50:43;22.60;;;8.40;;
53261;SDS011;39658;51.090;-1.786;2024-01-11T05:53:10;23.00;;;7.65;;
53261;SDS011;39658;51.090;-1.786;2024-01-11T05:55:37;31.50;;;9.30;;
53261;SDS011;39658;51.090;-1.786;2024-01-11T05:58:04;20.52;;;7.30;;
53261;SDS011;39658;51.090;-1.786;2024-01-11T06:00:31;30.13;;;7.82;;
53261;SDS011;39658;51.090;-1.786;2024-01-11T06:02:58;28.55;;;9.13;;
53261;SDS011;39658;51.090;-1.786;2024-01-11T06:05:25;24.05;;;7.70;;
53261;SDS011;39658;51.090;-1.786;2024-01-11T06:07:53;36.15;;;8.65;;
53261;SDS011;39658;51.090;-1.786;2024-01-11T06:10:20;24.17;;;7.07;;
53261;SDS011;39658;51.090;-1.786;2024-01-11T06:12:46;25.90;;;8.63;;
53261;SDS011;39658;51.090;-1.786;2024-01-11T06:15:13;32.88;;;7.88;;
53261;SDS011;39658;51.090;-1.786;2024-01-11T06:17:40;31.17;;;8.57;;
53261;SDS011;39658;51.090;-1.786;2024-01-11T06:20:07;29.17;;;8.60;;
53261;SDS011;39658;51.090;-1.786;2024-01-11T06:22:35;24.25;;;7.47;;
53261;SDS011;39658;51.090;-1.786;2024-01-11T06:25:03;26.05;;;8.10;;
53261;SDS011;39658;51.090;-1.786;2024-01-11T06:27:30;33.10;;;7.78;;
53261;SDS011;39658;51.090;-1.786;2024-01-11T06:29:57;23.70;;;8.38;;
53261;SDS011;39658;51.090;-1.786;2024-01-11T06:32:24;24.90;;;8.32;;
53261;SDS011;39658;51.090;-1.786;2024-01-11T06:34:50;28.73;;;9.30;;
53261;SDS011;39658;51.090;-1.786;2024-01-11T06:37:17;26.88;;;7.72;;
53261;SDS011;39658;51.090;-1.786;2024-01-11T06:39:44;28.40;;;8.18;;
53261;SDS011;39658;51.090;-1.786;2024-01-11T06:42:12;28.92;;;9.15;;
53261;SDS011;39658;51.090;-1.786;2024-01-11T06:44:39;29.40;;;9.52;;
53261;SDS011;39658;51.090;-1.786;2024-01-11T06:47:06;26.55;;;9.63;;
53261;SDS011;39658;51.090;-1.786;2024-01-11T06:49:33;29.55;;;9.40;;
53261;SDS011;39658;51.090;-1.786;2024-01-11T06:52:00;29.80;;;8.18;;
53261;SDS011;39658;51.090;-1.786;2024-01-11T06:54:28;31.10;;;8.57;;
53261;SDS011;39658;51.090;-1.786;2024-01-11T06:56:55;32.38;;;8.45;;
53261;SDS011;39658;51.090;-1.786;2024-01-11T06:59:23;31.40;;;8.25;;
53261;SDS011;39658;51.090;-1.786;2024-01-11T07:01:50;33.53;;;8.93;;
53261;SDS011;39658;51.090;-1.786;2024-01-11T07:04:17;29.83;;;8.52;;
53261;SDS011;39658;51.090;-1.786;2024-01-11T07:06:43;30.02;;;8.45;;
53261;SDS011;39658;51.090;-1.786;2024-01-11T07:09:10;26.90;;;7.60;;
53261;SDS011;39658;51.090;-1.786;2024-01-11T07:11:37;34.55;;;9.82;;
53261;SDS011;39658;51.090;-1.786;2024-01-11T07:14:04;32.22;;;8.65;;
53261;SDS011;39658;51.090;-1.786;2024-01-11T07:16:32;23.75;;;7.72;;
53261;SDS011;39658;51.090;-1.786;2024-01-11T07:18:59;35.75;;;8.50;;
53261;SDS011;39658;51.090;-1.786;2024-01-11T07:21:26;23.67;;;6.70;;
53261;SDS011;39658;51.090;-1.786;2024-01-11T07:23:56;29.85;;;7.60;;
53261;SDS011;39658;51.090;-1.786;2024-01-11T07:26:23;31.63;;;8.23;;
53261;SDS011;39658;51.090;-1.786;2024-01-11T07:28:50;27.48;;;7.82;;
53261;SDS011;39658;51.090;-1.786;2024-01-11T07:31:19;36.45;;;8.05;;
53261;SDS011;39658;51.090;-1.786;2024-01-11T07:33:47;26.00;;;7.78;;
53261;SDS011;39658;51.090;-1.786;2024-01-11T07:36:15;27.50;;;7.10;;
53261;SDS011;39658;51.090;-1.786;2024-01-11T07:38:42;25.67;;;8.85;;
53261;SDS011;39658;51.090;-1.786;2024-01-11T07:41:09;22.60;;;8.20;;
53261;SDS011;39658;51.090;-1.786;2024-01-11T07:43:36;22.25;;;7.38;;
53261;SDS011;39658;51.090;-1.786;2024-01-11T07:46:03;29.50;;;8.05;;
53261;SDS011;39658;51.090;-1.786;2024-01-11T07:48:30;25.60;;;6.85;;
53261;SDS011;39658;51.090;-1.786;2024-01-11T07:50:59;28.33;;;7.03;;
53261;SDS011;39658;51.090;-1.786;2024-01-11T07:53:26;25.23;;;8.55;;
53261;SDS011;39658;51.090;-1.786;2024-01-11T07:55:52;22.13;;;7.05;;
53261;SDS011;39658;51.090;-1.786;2024-01-11T07:58:19;23.15;;;6.85;;
53261;SDS011;39658;51.090;-1.786;2024-01-11T08:00:47;28.10;;;8.38;;
53261;SDS011;39658;51.090;-1.786;2024-01-11T08:03:14;26.63;;;6.90;;
53261;SDS011;39658;51.090;-1.786;2024-01-11T08:05:41;21.73;;;6.22;;
53261;SDS011;39658;51.090;-1.786;2024-01-11T08:08:10;30.17;;;7.40;;
53261;SDS011;39658;51.090;-1.786;2024-01-11T08:10:37;27.70;;;6.75;;
53261;SDS011;39658;51.090;-1.786;2024-01-11T08:13:04;24.25;;;7.68;;
53261;SDS011;39658;51.090;-1.786;2024-01-11T08:15:31;27.52;;;7.00;;
53261;SDS011;39658;51.090;-1.786;2024-01-11T08:17:58;27.38;;;7.28;;
53261;SDS011;39658;51.090;-1.786;2024-01-11T08:20:25;25.50;;;6.72;;
53261;SDS011;39658;51.090;-1.786;2024-01-11T08:22:52;19.10;;;6.00;;
53261;SDS011;39658;51.090;-1.786;2024-01-11T08:25:20;26.95;;;6.05;;
53261;SDS011;39658;51.090;-1.786;2024-01-11T08:27:48;23.42;;;6.72;;
53261;SDS011;39658;51.090;-1.786;2024-01-11T08:30:15;19.80;;;5.95;;
53261;SDS011;39658;51.090;-1.786;2024-01-11T08:32:42;27.90;;;7.18;;
53261;SDS011;39658;51.090;-1.786;2024-01-11T08:35:08;18.35;;;5.53;;
53261;SDS011;39658;51.090;-1.786;2024-01-11T08:37:36;18.63;;;5.45;;
53261;SDS011;39658;51.090;-1.786;2024-01-11T08:40:03;15.35;;;5.57;;
53261;SDS011;39658;51.090;-1.786;2024-01-11T08:42:32;23.30;;;6.43;;
53261;SDS011;39658;51.090;-1.786;2024-01-11T08:44:59;14.57;;;6.53;;
53261;SDS011;39658;51.090;-1.786;2024-01-11T08:47:31;20.30;;;5.13;;
53261;SDS011;39658;51.090;-1.786;2024-01-11T08:49:58;14.90;;;4.75;;
53261;SDS011;39658;51.090;-1.786;2024-01-11T08:52:25;16.48;;;5.13;;
53261;SDS011;39658;51.090;-1.786;2024-01-11T08:54:52;17.05;;;5.30;;
53261;SDS011;39658;51.090;-1.786;2024-01-11T08:57:19;14.45;;;4.88;;
53261;SDS011;39658;51.090;-1.786;2024-01-11T08:59:47;16.75;;;4.47;;
53261;SDS011;39658;51.090;-1.786;2024-01-11T09:02:13;12.10;;;5.07;;
53261;SDS011;39658;51.090;-1.786;2024-01-11T09:04:40;11.18;;;4.32;;
53261;SDS011;39658;51.090;-1.786;2024-01-11T09:07:07;14.73;;;5.13;;
53261;SDS011;39658;51.090;-1.786;2024-01-11T09:09:34;12.27;;;4.07;;
53261;SDS011;39658;51.090;-1.786;2024-01-11T09:12:00;11.65;;;3.50;;
53261;SDS011;39658;51.090;-1.786;2024-01-11T09:14:28;14.10;;;5.03;;
53261;SDS011;39658;51.090;-1.786;2024-01-11T09:16:56;11.43;;;3.70;;
53261;SDS011;39658;51.090;-1.786;2024-01-11T09:19:22;12.80;;;4.43;;
53261;SDS011;39658;51.090;-1.786;2024-01-11T09:21:50;13.35;;;3.65;;
53261;SDS011;39658;51.090;-1.786;2024-01-11T09:24:17;13.50;;;3.95;;
53261;SDS011;39658;51.090;-1.786;2024-01-11T09:26:43;11.27;;;3.90;;
53261;SDS011;39658;51.090;-1.786;2024-01-11T09:29:10;16.60;;;3.15;;
53261;SDS011;39658;51.090;-1.786;2024-01-11T09:31:37;11.60;;;3.85;;
53261;SDS011;39658;51.090;-1.786;2024-01-11T09:34:05;13.77;;;3.20;;
53261;SDS011;39658;51.090;-1.786;2024-01-11T09:36:32;14.02;;;3.47;;
53261;SDS011;39658;51.090;-1.786;2024-01-11T09:39:00;10.32;;;2.92;;
53261;SDS011;39658;51.090;-1.786;2024-01-11T09:41:27;14.57;;;3.38;;
53261;SDS011;39658;51.090;-1.786;2024-01-11T09:43:55;13.02;;;2.40;;
53261;SDS011;39658;51.090;-1.786;2024-01-11T09:46:25;11.80;;;3.50;;
53261;SDS011;39658;51.090;-1.786;2024-01-11T09:48:54;9.10;;;3.28;;
53261;SDS011;39658;51.090;-1.786;2024-01-11T09:51:25;10.93;;;3.35;;
53261;SDS011;39658;51.090;-1.786;2024-01-11T09:53:52;12.82;;;3.72;;
53261;SDS011;39658;51.090;-1.786;2024-01-11T09:56:21;12.98;;;3.40;;
53261;SDS011;39658;51.090;-1.786;2024-01-11T09:58:49;9.18;;;2.90;;
53261;SDS011;39658;51.090;-1.786;2024-01-11T10:01:17;13.05;;;3.00;;
53261;SDS011;39658;51.090;-1.786;2024-01-11T10:03:44;10.63;;;3.10;;
53261;SDS011;39658;51.090;-1.786;2024-01-11T10:06:12;11.98;;;2.97;;
53261;SDS011;39658;51.090;-1.786;2024-01-11T10:08:42;13.45;;;3.75;;
53261;SDS011;39658;51.090;-1.786;2024-01-11T10:11:09;17.67;;;3.83;;
53261;SDS011;39658;51.090;-1.786;2024-01-11T10:13:36;8.95;;;2.35;;
53261;SDS011;39658;51.090;-1.786;2024-01-11T10:16:04;15.98;;;3.92;;
53261;SDS011;39658;51.090;-1.786;2024-01-11T10:18:33;12.38;;;3.10;;
53261;SDS011;39658;51.090;-1.786;2024-01-11T10:21:00;8.70;;;3.25;;
53261;SDS011;39658;51.090;-1.786;2024-01-11T10:23:27;13.60;;;2.80;;
53261;SDS011;39658;51.090;-1.786;2024-01-11T10:25:57;11.90;;;3.78;;
53261;SDS011;39658;51.090;-1.786;2024-01-11T10:28:24;10.45;;;2.90;;
53261;SDS011;39658;51.090;-1.786;2024-01-11T10:30:51;14.55;;;4.03;;
53261;SDS011;39658;51.090;-1.786;2024-01-11T10:33:19;8.85;;;3.03;;
53261;SDS011;39658;51.090;-1.786;2024-01-11T10:35:47;8.77;;;3.03;;
53261;SDS011;39658;51.090;-1.786;2024-01-11T10:38:15;8.85;;;3.60;;
53261;SDS011;39658;51.090;-1.786;2024-01-11T10:40:42;15.45;;;3.83;;
53261;SDS011;39658;51.090;-1.786;2024-01-11T10:43:11;9.50;;;3.35;;
53261;SDS011;39658;51.090;-1.786;2024-01-11T10:45:38;9.25;;;2.50;;
53261;SDS011;39658;51.090;-1.786;2024-01-11T10:48:06;6.65;;;2.55;;
53261;SDS011;39658;51.090;-1.786;2024-01-11T10:50:42;11.75;;;3.42;;
53261;SDS011;39658;51.090;-1.786;2024-01-11T10:53:18;11.88;;;2.65;;
53261;SDS011;39658;51.090;-1.786;2024-01-11T10:55:55;10.73;;;3.35;;
53261;SDS011;39658;51.090;-1.786;2024-01-11T10:58:25;7.30;;;1.90;;
53261;SDS011;39658;51.090;-1.786;2024-01-11T11:00:53;6.63;;;1.50;;
53261;SDS011;39658;51.090;-1.786;2024-01-11T11:03:21;6.70;;;2.00;;
53261;SDS011;39658;51.090;-1.786;2024-01-11T11:05:50;8.43;;;2.22;;
53261;SDS011;39658;51.090;-1.786;2024-01-11T11:08:20;11.55;;;2.30;;
53261;SDS011;39658;51.090;-1.786;2024-01-11T11:10:51;8.90;;;1.92;;
53261;SDS011;39658;51.090;-1.786;2024-01-11T11:13:22;8.82;;;2.97;;
53261;SDS011;39658;51.090;-1.786;2024-01-11T11:15:50;8.18;;;2.03;;
53261;SDS011;39658;51.090;-1.786;2024-01-11T11:18:18;10.45;;;2.17;;
53261;SDS011;39658;51.090;-1.786;2024-01-11T11:20:46;6.40;;;1.90;;
53261;SDS011;39658;51.090;-1.786;2024-01-11T11:23:14;7.63;;;1.75;;
53261;SDS011;39658;51.090;-1.786;2024-01-11T11:25:42;7.97;;;2.03;;
53261;SDS011;39658;51.090;-1.786;2024-01-11T11:28:11;8.00;;;1.98;;
53261;SDS011;39658;51.090;-1.786;2024-01-11T11:30:40;9.93;;;2.30;;
53261;SDS011;39658;51.090;-1.786;2024-01-11T11:33:10;5.53;;;1.90;;
53261;SDS011;39658;51.090;-1.786;2024-01-11T11:35:42;7.78;;;2.53;;
53261;SDS011;39658;51.090;-1.786;2024-01-11T11:38:16;14.52;;;2.83;;
53261;SDS011;39658;51.090;-1.786;2024-01-11T11:40:44;5.70;;;1.67;;
53261;SDS011;39658;51.090;-1.786;2024-01-11T11:43:14;8.00;;;1.55;;
53261;SDS011;39658;51.090;-1.786;2024-01-11T11:45:42;7.25;;;1.42;;
53261;SDS011;39658;51.090;-1.786;2024-01-11T11:51:21;8.02;;;2.33;;
53261;SDS011;39658;51.090;-1.786;2024-01-11T11:53:49;12.00;;;2.38;;
53261;SDS011;39658;51.090;-1.786;2024-01-11T11:56:18;8.20;;;1.88;;
53261;SDS011;39658;51.090;-1.786;2024-01-11T11:58:46;9.27;;;2.75;;
53261;SDS011;39658;51.090;-1.786;2024-01-11T12:01:13;4.50;;;2.03;;
53261;SDS011;39658;51.090;-1.786;2024-01-11T12:03:42;6.75;;;2.15;;
53261;SDS011;39658;51.090;-1.786;2024-01-11T12:06:14;7.25;;;1.92;;
53261;SDS011;39658;51.090;-1.786;2024-01-11T12:08:43;6.20;;;1.85;;
53261;SDS011;39658;51.090;-1.786;2024-01-11T12:11:12;5.80;;;2.03;;
53261;SDS011;39658;51.090;-1.786;2024-01-11T12:13:40;6.85;;;2.20;;
53261;SDS011;39658;51.090;-1.786;2024-01-11T12:16:09;9.20;;;1.80;;
53261;SDS011;39658;51.090;-1.786;2024-01-11T12:18:36;6.28;;;2.17;;
53261;SDS011;39658;51.090;-1.786;2024-01-11T12:21:03;6.88;;;1.48;;
53261;SDS011;39658;51.090;-1.786;2024-01-11T12:23:30;7.43;;;2.47;;
53261;SDS011;39658;51.090;-1.786;2024-01-11T12:25:59;5.03;;;1.83;;
53261;SDS011;39658;51.090;-1.786;2024-01-11T12:28:27;5.55;;;1.67;;
53261;SDS011;39658;51.090;-1.786;2024-01-11T12:30:54;6.85;;;2.15;;
53261;SDS011;39658;51.090;-1.786;2024-01-11T12:33:21;4.45;;;1.70;;
53261;SDS011;39658;51.090;-1.786;2024-01-11T12:35:48;7.55;;;1.92;;
53261;SDS011;39658;51.090;-1.786;2024-01-11T12:38:15;6.45;;;2.10;;
53261;SDS011;39658;51.090;-1.786;2024-01-11T12:40:42;5.70;;;1.88;;
53261;SDS011;39658;51.090;-1.786;2024-01-11T12:43:11;7.30;;;1.80;;
53261;SDS011;39658;51.090;-1.786;2024-01-11T12:45:39;6.95;;;1.80;;
53261;SDS011;39658;51.090;-1.786;2024-01-11T12:48:07;6.18;;;1.65;;
53261;SDS011;39658;51.090;-1.786;2024-01-11T12:50:34;5.72;;;1.60;;
53261;SDS011;39658;51.090;-1.786;2024-01-11T12:53:05;5.63;;;2.10;;
53261;SDS011;39658;51.090;-1.786;2024-01-11T12:55:33;3.90;;;1.45;;
53261;SDS011;39658;51.090;-1.786;2024-01-11T12:58:04;4.90;;;1.83;;
53261;SDS011;39658;51.090;-1.786;2024-01-11T13:00:33;4.35;;;1.35;;
53261;SDS011;39658;51.090;-1.786;2024-01-11T13:02:59;5.80;;;1.55;;
53261;SDS011;39658;51.090;-1.786;2024-01-11T13:05:26;7.97;;;1.92;;
53261;SDS011;39658;51.090;-1.786;2024-01-11T13:07:53;6.97;;;1.30;;
53261;SDS011;39658;51.090;-1.786;2024-01-11T13:10:21;6.55;;;1.17;;
53261;SDS011;39658;51.090;-1.786;2024-01-11T13:12:53;4.05;;;1.80;;
53261;SDS011;39658;51.090;-1.786;2024-01-11T13:15:19;5.60;;;1.85;;
53261;SDS011;39658;51.090;-1.786;2024-01-11T13:17:48;5.97;;;1.92;;
53261;SDS011;39658;51.090;-1.786;2024-01-11T13:20:15;4.38;;;1.58;;
53261;SDS011;39658;51.090;-1.786;2024-01-11T13:22:41;5.03;;;1.60;;
53261;SDS011;39658;51.090;-1.786;2024-01-11T13:25:08;7.40;;;2.00;;
53261;SDS011;39658;51.090;-1.786;2024-01-11T13:27:35;3.95;;;1.10;;
53261;SDS011;39658;51.090;-1.786;2024-01-11T13:30:02;4.57;;;1.50;;
53261;SDS011;39658;51.090;-1.786;2024-01-11T13:32:29;5.85;;;1.20;;
53261;SDS011;39658;51.090;-1.786;2024-01-11T13:34:57;3.20;;;1.00;;
53261;SDS011;39658;51.090;-1.786;2024-01-11T13:37:24;3.88;;;1.35;;
53261;SDS011;39658;51.090;-1.786;2024-01-11T13:39:51;5.03;;;1.30;;
53261;SDS011;39658;51.090;-1.786;2024-01-11T13:42:18;3.78;;;1.17;;
53261;SDS011;39658;51.090;-1.786;2024-01-11T13:44:44;6.70;;;1.50;;
53261;SDS011;39658;51.090;-1.786;2024-01-11T13:47:11;10.57;;;2.60;;
53261;SDS011;39658;51.090;-1.786;2024-01-11T13:49:39;4.47;;;1.50;;
53261;SDS011;39658;51.090;-1.786;2024-01-11T13:52:07;6.90;;;1.80;;
53261;SDS011;39658;51.090;-1.786;2024-01-11T13:54:34;5.43;;;1.67;;
53261;SDS011;39658;51.090;-1.786;2024-01-11T13:57:01;5.90;;;1.60;;
53261;SDS011;39658;51.090;-1.786;2024-01-11T13:59:28;4.22;;;1.75;;
53261;SDS011;39658;51.090;-1.786;2024-01-11T14:01:55;5.47;;;1.33;;
53261;SDS011;39658;51.090;-1.786;2024-01-11T14:04:22;3.20;;;1.50;;
53261;SDS011;39658;51.090;-1.786;2024-01-11T14:06:49;4.85;;;1.65;;
53261;SDS011;39658;51.090;-1.786;2024-01-11T14:09:18;3.20;;;1.58;;
53261;SDS011;39658;51.090;-1.786;2024-01-11T14:11:46;3.83;;;1.50;;
53261;SDS011;39658;51.090;-1.786;2024-01-11T14:14:14;4.00;;;1.48;;
53261;SDS011;39658;51.090;-1.786;2024-01-11T14:16:43;3.22;;;1.02;;
53261;SDS011;39658;51.090;-1.786;2024-01-11T14:19:10;4.60;;;1.45;;
53261;SDS011;39658;51.090;-1.786;2024-01-11T14:21:37;4.20;;;1.40;;
53261;SDS011;39658;51.090;-1.786;2024-01-11T14:24:04;5.00;;;1.58;;
53261;SDS011;39658;51.090;-1.786;2024-01-11T14:26:33;5.78;;;1.95;;
53261;SDS011;39658;51.090;-1.786;2024-01-11T14:29:00;4.30;;;2.30;;
53261;SDS011;39658;51.090;-1.786;2024-01-11T14:31:27;4.00;;;1.58;;